createdAt,value
2019-03-02T00:00:07.942Z,98103.87
2019-03-02T00:01:13.350Z,98098.19
2019-03-02T00:02:17.163Z,98098.53
2019-03-02T00:03:19.973Z,98099.67
2019-03-02T00:04:22.820Z,98101.20
2019-03-02T00:05:28.100Z,98101.83
2019-03-02T00:06:32.811Z,98103.42
2019-03-02T00:07:35.495Z,98103.42
2019-03-02T00:08:38.286Z,98096.39
2019-03-02T00:09:41.078Z,98101.20
2019-03-02T00:10:44.460Z,98101.20
2019-03-02T00:11:48.865Z,98106.33
2019-03-02T00:12:51.720Z,98100.15
2019-03-02T00:13:54.572Z,98104.40
2019-03-02T00:14:57.414Z,98104.40
2019-03-02T00:16:00.927Z,98099.09
2019-03-02T00:17:03.872Z,98101.52
2019-03-02T00:18:09.477Z,98097.45
2019-03-02T00:19:25.616Z,98095.61
2019-03-02T00:20:28.512Z,98090.69
2019-03-02T00:21:32.385Z,98089.58
2019-03-02T00:22:39.586Z,98089.58
2019-03-02T00:23:41.400Z,98099.78
2019-03-02T00:24:44.480Z,98090.69
2019-03-02T00:25:50.107Z,98090.69
2019-03-02T00:26:52.953Z,98089.78
2019-03-02T00:27:58.257Z,98091.59
2019-03-02T00:29:00.192Z,98091.59
2019-03-02T00:30:02.995Z,98083.13
2019-03-02T00:31:06.398Z,98081.99
2019-03-02T00:32:09.650Z,98087.38
2019-03-02T00:33:16.547Z,98089.28
2019-03-02T00:34:18.400Z,98089.02
2019-03-02T00:35:21.204Z,98089.02
2019-03-02T00:36:24.010Z,98089.55
2019-03-02T00:37:29.715Z,98087.97
2019-03-02T00:38:31.585Z,98087.97
2019-03-02T00:39:34.422Z,98087.97
2019-03-02T00:40:37.232Z,98087.97
2019-03-02T00:41:42.180Z,98085.33
2019-03-02T00:42:45.299Z,98089.45
2019-03-02T00:43:49.939Z,98078.44
2019-03-02T00:44:52.677Z,98078.44
2019-03-02T00:45:57.418Z,98084.56
2019-03-02T00:47:00.528Z,98080.73
2019-03-02T00:48:03.402Z,98080.73
2019-03-02T00:49:09.407Z,98083.48
2019-03-02T00:50:12.206Z,98087.58
2019-03-02T00:51:17.240Z,98078.94
2019-03-02T00:52:23.664Z,98082.72
2019-03-02T00:53:31.854Z,98080.94
2019-03-02T00:54:34.316Z,98080.94
2019-03-02T00:55:37.450Z,98085.83
2019-03-02T00:56:42.824Z,98089.33
2019-03-02T00:57:45.593Z,98077.48
2019-03-02T00:58:48.439Z,98077.45
2019-03-02T00:59:51.237Z,98072.41
2019-03-02T01:00:55.638Z,98074.23
2019-03-02T01:02:00.678Z,98072.70
2019-03-02T01:03:03.314Z,98072.67
2019-03-02T01:04:06.347Z,98072.67
2019-03-02T01:05:09.473Z,98072.41
2019-03-02T01:06:12.717Z,98076.18
2019-03-02T01:07:20.793Z,98072.63
2019-03-02T01:08:22.304Z,98070.98
2019-03-02T01:09:25.491Z,98062.91
2019-03-02T01:10:28.359Z,98066.73
2019-03-02T01:11:32.875Z,98061.95
2019-03-02T01:12:35.623Z,98061.12
2019-03-02T01:13:38.803Z,98061.12
2019-03-02T01:14:41.620Z,98063.72
2019-03-02T01:15:47.595Z,98066.94
2019-03-02T01:16:51.790Z,98066.94
2019-03-02T01:17:54.889Z,98066.41
2019-03-02T01:18:57.676Z,98061.37
2019-03-02T01:20:00.748Z,98064.83
2019-03-02T01:21:03.943Z,98064.83
2019-03-02T01:22:13.599Z,98053.19
2019-03-02T01:23:15.323Z,98054.90
2019-03-02T01:24:18.151Z,98046.48
2019-03-02T01:25:20.977Z,98047.82
2019-03-02T01:26:27.429Z,98049.38
2019-03-02T01:27:31.758Z,98049.38
2019-03-02T01:28:33.085Z,98044.28
2019-03-02T01:29:37.959Z,98042.64
2019-03-02T01:30:40.783Z,98048.59
2019-03-02T01:31:43.569Z,98048.59
2019-03-02T01:32:48.980Z,98040.72
2019-03-02T01:33:51.221Z,98040.72
2019-03-02T01:34:54.020Z,98042.17
2019-03-02T01:35:57.042Z,98041.62
2019-03-02T01:37:00.507Z,98042.56
2019-03-02T01:38:03.378Z,98036.68
2019-03-02T01:39:07.009Z,98031.16
2019-03-02T01:40:09.785Z,98038.98
2019-03-02T01:41:13.955Z,98036.28
2019-03-02T01:42:17.306Z,98030.26
2019-03-02T01:43:20.135Z,98028.76
2019-03-02T01:44:23.004Z,98028.76
2019-03-02T01:45:27.785Z,98042.54
2019-03-02T01:46:30.611Z,98031.14
2019-03-02T01:47:33.406Z,98031.14
2019-03-02T01:48:36.190Z,98027.70
2019-03-02T01:49:39.018Z,98027.70
2019-03-02T01:50:43.783Z,98030.19
2019-03-02T01:51:46.705Z,98030.19
2019-03-02T01:52:49.527Z,98029.02
2019-03-02T01:53:52.368Z,98029.05
2019-03-02T01:54:55.730Z,98029.05
2019-03-02T01:56:02.634Z,98028.02
2019-03-02T01:57:03.970Z,98028.02
2019-03-02T01:58:07.008Z,98018.54
2019-03-02T01:59:09.851Z,98014.82
2019-03-02T02:00:13.852Z,98019.20
2019-03-02T02:01:17.291Z,98021.69
2019-03-02T02:02:20.097Z,98016.69
2019-03-02T02:03:22.937Z,98019.83
2019-03-02T02:04:26.077Z,98019.83
2019-03-02T02:05:31.993Z,98017.75
2019-03-02T02:06:33.425Z,98021.02
2019-03-02T02:07:42.247Z,98021.63
2019-03-02T02:08:45.050Z,98015.74
2019-03-02T02:09:47.898Z,98011.39
2019-03-02T02:10:50.967Z,98012.20
2019-03-02T02:11:54.261Z,98000.94
2019-03-02T02:12:57.118Z,98010.06
2019-03-02T02:13:59.927Z,98009.33
2019-03-02T02:15:02.734Z,98007.61
2019-03-02T02:16:06.716Z,98011.33
2019-03-02T02:17:11.069Z,98011.33
2019-03-02T02:18:13.935Z,98007.13
2019-03-02T02:19:16.728Z,98009.33
2019-03-02T02:20:19.947Z,98009.33
2019-03-02T02:21:23.729Z,98003.66
2019-03-02T02:22:27.235Z,98003.66
2019-03-02T02:23:30.303Z,98005.02
2019-03-02T02:24:35.622Z,97998.83
2019-03-02T02:25:42.856Z,97998.83
2019-03-02T02:26:46.932Z,97995.58
2019-03-02T02:27:54.927Z,98002.57
2019-03-02T02:28:57.414Z,97999.91
2019-03-02T02:30:03.781Z,97995.05
2019-03-02T02:31:08.008Z,97988.34
2019-03-02T02:32:10.868Z,97992.80
2019-03-02T02:33:13.753Z,97991.11
2019-03-02T02:34:21.124Z,97997.66
2019-03-02T02:35:22.686Z,97990.19
2019-03-02T02:36:25.510Z,97993.44
2019-03-02T02:37:32.326Z,97989.95
2019-03-02T02:38:33.225Z,97986.23
2019-03-02T02:39:36.063Z,97983.25
2019-03-02T02:40:38.859Z,97989.66
2019-03-02T02:41:41.960Z,97989.66
2019-03-02T02:42:45.053Z,97979.45
2019-03-02T02:43:48.008Z,97977.57
2019-03-02T02:44:50.754Z,97979.20
2019-03-02T02:45:55.081Z,97978.68
2019-03-02T02:46:58.074Z,97972.72
2019-03-02T02:48:01.165Z,97973.69
2019-03-02T02:49:05.234Z,97968.54
2019-03-02T02:50:08.578Z,97968.54
2019-03-02T02:51:12.359Z,97966.43
2019-03-02T02:52:15.523Z,97966.43
2019-03-02T02:53:18.419Z,97967.59
2019-03-02T02:54:23.332Z,97965.16
2019-03-02T02:55:25.950Z,97965.16
2019-03-02T02:56:28.749Z,97966.54
2019-03-02T02:57:33.577Z,97959.23
2019-03-02T02:58:36.419Z,97961.34
2019-03-02T02:59:39.925Z,97960.78
2019-03-02T03:00:43.007Z,97958.64
2019-03-02T03:01:46.230Z,97955.98
2019-03-02T03:02:49.065Z,97955.98
2019-03-02T03:03:54.974Z,97956.00
2019-03-02T03:04:56.470Z,97949.86
2019-03-02T03:05:59.268Z,97949.86
2019-03-02T03:07:02.362Z,97954.40
2019-03-02T03:08:05.146Z,97949.02
2019-03-02T03:09:17.038Z,97950.36
2019-03-02T03:10:34.036Z,97948.52
2019-03-02T03:11:44.005Z,97944.74
2019-03-02T03:12:41.284Z,97944.74
2019-03-02T03:13:44.392Z,97949.80
2019-03-02T03:14:47.187Z,97949.80
2019-03-02T03:15:51.741Z,97951.68
2019-03-02T03:16:55.653Z,97947.67
2019-03-02T03:17:58.639Z,97947.93
2019-03-02T03:19:01.453Z,97948.98
2019-03-02T03:20:05.603Z,97948.98
2019-03-02T03:21:08.980Z,97947.84
2019-03-02T03:22:11.789Z,97944.07
2019-03-02T03:23:14.670Z,97948.93
2019-03-02T03:24:17.455Z,97948.34
2019-03-02T03:25:20.336Z,97945.42
2019-03-02T03:26:23.405Z,97952.70
2019-03-02T03:27:26.221Z,97942.28
2019-03-02T03:28:30.531Z,97942.28
2019-03-02T03:29:33.555Z,97947.88
2019-03-02T03:30:39.758Z,97943.89
2019-03-02T03:31:40.786Z,97943.89
2019-03-02T03:32:54.858Z,97946.34
2019-03-02T03:33:48.823Z,97946.34
2019-03-02T03:34:51.731Z,97949.28
2019-03-02T03:35:56.101Z,97949.28
2019-03-02T03:36:59.094Z,97949.25
2019-03-02T03:38:01.890Z,97955.95
2019-03-02T03:39:07.136Z,97948.17
2019-03-02T03:40:10.838Z,97948.17
2019-03-02T03:41:13.714Z,97941.73
2019-03-02T03:42:22.242Z,97953.79
2019-03-02T03:43:20.994Z,97953.79
2019-03-02T03:44:27.141Z,97942.55
2019-03-02T03:45:28.998Z,97942.55
2019-03-02T03:46:31.993Z,97940.91
2019-03-02T03:47:38.814Z,97940.91
2019-03-02T03:48:39.372Z,97943.55
2019-03-02T03:49:42.157Z,97940.30
2019-03-02T03:50:48.207Z,97935.47
2019-03-02T03:51:49.473Z,97939.83
2019-03-02T03:52:52.256Z,97940.67
2019-03-02T03:53:55.497Z,97942.05
2019-03-02T03:54:58.304Z,97937.48
2019-03-02T03:56:04.066Z,97942.28
2019-03-02T03:57:05.889Z,97942.28
2019-03-02T03:58:08.730Z,97936.14
2019-03-02T03:59:14.194Z,97941.55
2019-03-02T04:00:15.986Z,97944.53
2019-03-02T04:01:19.236Z,97945.35
2019-03-02T04:02:22.147Z,97938.06
2019-03-02T04:03:25.300Z,97939.15
2019-03-02T04:04:29.084Z,97935.08
2019-03-02T04:05:32.534Z,97936.95
2019-03-02T04:06:36.562Z,97940.14
2019-03-02T04:07:48.256Z,97940.14
2019-03-02T04:08:44.688Z,97937.48
2019-03-02T04:09:48.294Z,97940.14
2019-03-02T04:10:51.183Z,97940.09
2019-03-02T04:11:53.979Z,97940.09
2019-03-02T04:13:03.852Z,97936.61
2019-03-02T04:14:01.322Z,97937.42
2019-03-02T04:15:04.169Z,97932.05
2019-03-02T04:16:07.268Z,97936.31
2019-03-02T04:17:10.127Z,97948.17
2019-03-02T04:18:16.328Z,97944.66
2019-03-02T04:19:17.586Z,97944.66
2019-03-02T04:20:20.431Z,97945.27
2019-03-02T04:21:27.917Z,97946.84
2019-03-02T04:22:27.737Z,97937.13
2019-03-02T04:23:30.603Z,97939.03
2019-03-02T04:24:39.546Z,97939.03
2019-03-02T04:25:41.109Z,97939.71
2019-03-02T04:26:43.938Z,97950.83
2019-03-02T04:27:54.212Z,97944.66
2019-03-02T04:28:52.362Z,97944.66
2019-03-02T04:29:55.542Z,97947.58
2019-03-02T04:30:59.172Z,97938.92
2019-03-02T04:32:01.951Z,97950.95
2019-03-02T04:33:05.912Z,97942.96
2019-03-02T04:34:09.403Z,97942.96
2019-03-02T04:35:12.235Z,97940.20
2019-03-02T04:36:15.175Z,97941.03
2019-03-02T04:37:20.314Z,97945.27
2019-03-02T04:38:22.554Z,97945.27
2019-03-02T04:39:25.369Z,97942.08
2019-03-02T04:40:29.105Z,97942.08
2019-03-02T04:41:31.972Z,97946.44
2019-03-02T04:42:34.840Z,97946.44
2019-03-02T04:43:37.632Z,97943.16
2019-03-02T04:44:40.482Z,97943.63
2019-03-02T04:45:43.362Z,97948.75
2019-03-02T04:46:47.691Z,97948.75
2019-03-02T04:47:50.758Z,97941.00
2019-03-02T04:48:53.561Z,97943.07
2019-03-02T04:49:56.345Z,97945.80
2019-03-02T04:50:59.648Z,97941.29
2019-03-02T04:52:02.567Z,97941.29
2019-03-02T04:53:05.736Z,97938.62
2019-03-02T04:54:08.536Z,97938.62
2019-03-02T04:55:13.599Z,97945.06
2019-03-02T04:56:15.813Z,97941.03
2019-03-02T04:57:18.673Z,97944.83
2019-03-02T04:58:23.040Z,97944.83
2019-03-02T04:59:26.310Z,97935.41
2019-03-02T05:00:32.040Z,97935.41
2019-03-02T05:01:33.677Z,97925.13
2019-03-02T05:02:36.600Z,97924.73
2019-03-02T05:03:39.507Z,97924.73
2019-03-02T05:04:42.623Z,97931.08
2019-03-02T05:05:45.820Z,97931.08
2019-03-02T05:06:50.547Z,97932.16
2019-03-02T05:07:53.202Z,97923.78
2019-03-02T05:08:56.020Z,97921.68
2019-03-02T05:09:59.119Z,97923.27
2019-03-02T05:11:03.575Z,97917.25
2019-03-02T05:12:06.701Z,97917.25
2019-03-02T05:13:09.521Z,97921.56
2019-03-02T05:14:14.927Z,97921.56
2019-03-02T05:15:17.775Z,97917.81
2019-03-02T05:16:20.570Z,97917.81
2019-03-02T05:17:23.358Z,97911.67
2019-03-02T05:18:26.452Z,97914.30
2019-03-02T05:19:29.958Z,97914.30
2019-03-02T05:20:32.827Z,97913.19
2019-03-02T05:21:39.899Z,97916.27
2019-03-02T05:22:42.328Z,97907.37
2019-03-02T05:23:45.169Z,97908.95
2019-03-02T05:24:48.339Z,97908.95
2019-03-02T05:25:51.605Z,97908.95
2019-03-02T05:26:57.814Z,97906.81
2019-03-02T05:28:03.823Z,97907.01
2019-03-02T05:29:05.235Z,97906.19
2019-03-02T05:30:09.162Z,97911.31
2019-03-02T05:31:15.206Z,97911.31
2019-03-02T05:32:21.010Z,97908.09
2019-03-02T05:33:24.319Z,97908.09
2019-03-02T05:34:28.775Z,97906.95
2019-03-02T05:35:31.630Z,97906.95
2019-03-02T05:36:34.422Z,97907.50
2019-03-02T05:37:39.112Z,97906.38
2019-03-02T05:38:42.062Z,97908.09
2019-03-02T05:39:44.945Z,97907.59
2019-03-02T05:40:47.789Z,97908.98
2019-03-02T05:41:50.687Z,97907.86
2019-03-02T05:42:53.496Z,97908.91
2019-03-02T05:43:56.598Z,97902.47
2019-03-02T05:44:59.514Z,97909.73
2019-03-02T05:46:02.310Z,97906.72
2019-03-02T05:47:05.163Z,97905.30
2019-03-02T05:48:08.010Z,97900.47
2019-03-02T05:49:10.811Z,97903.30
2019-03-02T05:50:13.972Z,97903.30
2019-03-02T05:51:16.782Z,97908.09
2019-03-02T05:52:19.583Z,97908.09
2019-03-02T05:53:22.842Z,97907.44
2019-03-02T05:54:25.638Z,97905.80
2019-03-02T05:55:28.547Z,97908.19
2019-03-02T05:56:31.824Z,97905.56
2019-03-02T05:57:36.939Z,97905.56
2019-03-02T05:58:39.336Z,97903.27
2019-03-02T05:59:42.190Z,97903.27
2019-03-02T06:00:45.515Z,97907.63
2019-03-02T06:01:48.367Z,97904.41
2019-03-02T06:02:51.499Z,97901.95
2019-03-02T06:03:54.786Z,97900.77
2019-03-02T06:04:58.062Z,97902.91
2019-03-02T06:06:01.041Z,97899.72
2019-03-02T06:07:04.010Z,97903.75
2019-03-02T06:08:06.917Z,97903.53
2019-03-02T06:09:13.940Z,97902.34
2019-03-02T06:10:14.595Z,97902.84
2019-03-02T06:11:17.465Z,97894.98
2019-03-02T06:12:20.326Z,97894.98
2019-03-02T06:13:24.741Z,97894.46
2019-03-02T06:14:30.462Z,97893.05
2019-03-02T06:15:32.556Z,97895.02
2019-03-02T06:16:35.452Z,97896.86
2019-03-02T06:17:38.308Z,97896.86
2019-03-02T06:18:42.503Z,97899.09
2019-03-02T06:19:45.687Z,97897.48
2019-03-02T06:20:48.487Z,97898.05
2019-03-02T06:21:51.305Z,97892.69
2019-03-02T06:22:55.454Z,97887.83
2019-03-02T06:24:01.589Z,97897.78
2019-03-02T06:25:05.600Z,97896.99
2019-03-02T06:26:10.292Z,97896.99
2019-03-02T06:27:13.209Z,97895.67
2019-03-02T06:28:19.635Z,97896.40
2019-03-02T06:29:21.515Z,97887.59
2019-03-02T06:43:40.992Z,97878.89
2019-03-02T06:44:43.928Z,97878.89
2019-03-02T06:45:46.891Z,97890.91
2019-03-02T06:46:49.747Z,97889.04
2019-03-02T06:47:54.777Z,97891.73
2019-03-02T06:48:57.423Z,97890.65
2019-03-02T06:50:00.642Z,97890.65
2019-03-02T06:51:07.775Z,97880.10
2019-03-02T06:52:12.766Z,97892.78
2019-03-02T06:53:17.026Z,97892.59
2019-03-02T06:54:22.018Z,97887.27
2019-03-02T06:55:25.524Z,97890.98
2019-03-02T06:56:28.451Z,97887.98
2019-03-02T06:57:31.317Z,97889.59
2019-03-02T06:58:34.707Z,97889.59
2019-03-02T06:59:39.336Z,97889.56
2019-03-02T07:00:45.617Z,97889.56
2019-03-02T07:01:47.431Z,97889.83
2019-03-02T07:02:50.318Z,97887.92
2019-03-02T07:03:53.216Z,97890.88
2019-03-02T07:04:58.082Z,97894.39
2019-03-02T07:06:00.490Z,97893.31
2019-03-02T07:07:03.355Z,97893.31
2019-03-02T07:08:06.169Z,97887.16
2019-03-02T07:09:09.791Z,97889.86
2019-03-02T07:10:13.559Z,97889.23
2019-03-02T07:11:16.366Z,97885.16
2019-03-02T07:12:19.233Z,97885.16
2019-03-02T07:13:22.530Z,97881.60
2019-03-02T07:14:28.911Z,97878.05
2019-03-02T07:15:29.936Z,97878.05
2019-03-02T07:16:32.785Z,97881.05
2019-03-02T07:17:54.425Z,97880.03
2019-03-02T07:19:16.770Z,97880.03
2019-03-02T07:20:23.974Z,97882.09
2019-03-02T07:21:27.016Z,97878.88
2019-03-02T07:22:29.847Z,97883.41
2019-03-02T07:23:33.223Z,97887.18
2019-03-02T07:24:38.960Z,97885.61
2019-03-02T07:25:44.236Z,97882.36
2019-03-02T07:26:46.599Z,97882.76
2019-03-02T07:27:49.395Z,97886.50
2019-03-02T07:28:52.263Z,97886.50
2019-03-02T07:29:57.376Z,97890.02
2019-03-02T07:31:01.534Z,97885.38
2019-03-02T07:32:07.586Z,97886.73
2019-03-02T07:33:11.527Z,97886.73
2019-03-02T07:34:14.418Z,97881.60
2019-03-02T07:35:19.392Z,97885.28
2019-03-02T07:36:22.020Z,97880.45
2019-03-02T07:37:24.836Z,97882.92
2019-03-02T07:38:27.917Z,97889.36
2019-03-02T07:39:32.687Z,97889.36
2019-03-02T07:40:35.312Z,97886.36
2019-03-02T07:41:40.456Z,97887.71
2019-03-02T07:42:45.964Z,97884.75
2019-03-02T07:43:50.416Z,97893.99
2019-03-02T07:44:54.885Z,97888.80
2019-03-02T07:45:57.711Z,97891.00
2019-03-02T07:47:00.514Z,97888.56
2019-03-02T07:48:03.332Z,97890.97
2019-03-02T07:49:09.189Z,97890.14
2019-03-02T07:50:11.462Z,97885.88
2019-03-02T07:51:15.986Z,97885.88
2019-03-02T07:52:18.730Z,97897.44
2019-03-02T07:53:24.995Z,97894.02
2019-03-02T07:54:26.014Z,97889.66
2019-03-02T07:55:29.124Z,97890.14
2019-03-02T07:56:33.342Z,97890.14
2019-03-02T07:57:36.123Z,97886.33
2019-03-02T07:58:38.944Z,97883.41
2019-03-02T07:59:44.216Z,97881.80
2019-03-02T08:00:47.471Z,97881.80
2019-03-02T08:01:52.720Z,97878.20
2019-03-02T08:02:56.241Z,97877.38
2019-03-02T08:04:00.959Z,97879.48
2019-03-02T08:05:03.914Z,97879.48
2019-03-02T08:06:06.863Z,97885.61
2019-03-02T08:07:10.281Z,97885.06
2019-03-02T08:08:13.979Z,97884.00
2019-03-02T08:09:18.170Z,97875.40
2019-03-02T08:10:21.468Z,97882.63
2019-03-02T08:11:24.352Z,97887.48
2019-03-02T08:12:27.200Z,97883.59
2019-03-02T08:13:32.770Z,97877.67
2019-03-02T08:14:34.819Z,97879.63
2019-03-02T08:15:41.844Z,97883.11
2019-03-02T08:16:44.685Z,97883.11
2019-03-02T08:17:49.128Z,97873.11
2019-03-02T08:18:53.102Z,97874.50
2019-03-02T08:19:56.833Z,97874.50
2019-03-02T08:21:00.715Z,97888.76
2019-03-02T08:22:04.438Z,97888.76
2019-03-02T08:23:07.764Z,97892.20
2019-03-02T08:24:10.603Z,97888.95
2019-03-02T08:25:13.857Z,97889.58
2019-03-02T08:26:17.387Z,97892.24
2019-03-02T08:27:20.270Z,97891.12
2019-03-02T08:28:23.212Z,97890.30
2019-03-02T08:29:30.429Z,97893.25
2019-03-02T08:30:33.660Z,97891.64
2019-03-02T08:31:41.898Z,97877.71
2019-03-02T08:32:43.463Z,97883.14
2019-03-02T08:33:46.671Z,97883.14
2019-03-02T08:34:49.607Z,97886.06
2019-03-02T08:35:52.505Z,97884.67
2019-03-02T08:36:55.551Z,97887.33
2019-03-02T08:38:01.676Z,97887.33
2019-03-02T08:39:06.895Z,97889.43
2019-03-02T08:40:09.345Z,97885.98
2019-03-02T08:41:12.259Z,97885.98
2019-03-02T08:42:15.121Z,97888.56
2019-03-02T08:43:20.683Z,97886.16
2019-03-02T08:44:24.264Z,97889.13
2019-03-02T08:45:27.675Z,97888.52
2019-03-02T08:46:31.695Z,97888.81
2019-03-02T08:47:34.539Z,97888.81
2019-03-02T08:48:40.404Z,97885.44
2019-03-02T08:49:43.257Z,97885.44
2019-03-02T08:50:46.389Z,97887.86
2019-03-02T08:51:49.628Z,122439.38
2019-03-02T08:52:52.503Z,137028.19
2019-03-02T08:53:55.342Z,122438.84
2019-03-02T08:54:58.336Z,122438.84
2019-03-02T08:56:01.218Z,97881.01
2019-03-02T08:57:04.485Z,97885.82
2019-03-02T08:58:10.757Z,97885.82
2019-03-02T08:59:13.595Z,97885.02
2019-03-02T09:00:16.426Z,97887.98
2019-03-02T09:01:19.727Z,97887.98
2019-03-02T09:02:22.691Z,97885.55
2019-03-02T09:03:26.017Z,97882.32
2019-03-02T09:04:28.794Z,97886.36
2019-03-02T09:05:43.613Z,97886.63
2019-03-02T09:06:36.241Z,97881.55
2019-03-02T09:07:41.387Z,97880.41
2019-03-02T09:08:44.225Z,97878.15
2019-03-02T09:09:47.759Z,97878.15
2019-03-02T09:10:51.047Z,97876.84
2019-03-02T09:11:55.817Z,97874.37
2019-03-02T09:12:59.799Z,97884.42
2019-03-02T09:14:03.162Z,97886.16
2019-03-02T09:15:06.045Z,97878.32
2019-03-02T09:16:09.231Z,97881.20
2019-03-02T09:17:17.708Z,97883.07
2019-03-02T09:18:19.535Z,97877.03
2019-03-02T09:19:25.080Z,97883.45
2019-03-02T09:20:32.441Z,97883.41
2019-03-02T09:21:35.540Z,97883.41
2019-03-02T09:22:38.430Z,97878.94
2019-03-02T09:23:41.306Z,97879.45
2019-03-02T09:24:45.775Z,97878.59
2019-03-02T09:25:48.679Z,97878.59
2019-03-02T09:26:53.673Z,97874.05
2019-03-02T09:27:56.487Z,97882.06
2019-03-02T09:28:59.417Z,97887.50
2019-03-02T09:30:02.249Z,97882.80
2019-03-02T09:31:05.073Z,97877.88
2019-03-02T09:32:10.991Z,97883.61
2019-03-02T09:33:12.344Z,97884.05
2019-03-02T09:34:15.307Z,97887.17
2019-03-02T09:35:18.157Z,97887.17
2019-03-02T09:36:21.018Z,97882.67
2019-03-02T09:37:24.118Z,97887.65
2019-03-02T09:38:31.938Z,97884.13
2019-03-02T09:39:37.273Z,97881.38
2019-03-02T09:40:42.437Z,97884.59
2019-03-02T09:41:48.038Z,97887.50
2019-03-02T09:42:51.773Z,97889.44
2019-03-02T09:43:55.257Z,97899.34
2019-03-02T09:44:59.055Z,97899.34
2019-03-02T09:46:03.629Z,97890.03
2019-03-02T09:47:09.091Z,97892.07
2019-03-02T09:48:14.178Z,97890.91
2019-03-02T09:49:17.019Z,97881.52
2019-03-02T09:50:21.910Z,97889.03
2019-03-02T09:51:24.819Z,97881.77
2019-03-02T09:52:27.628Z,97886.27
2019-03-02T09:53:35.033Z,97887.00
2019-03-02T09:54:39.592Z,97886.42
2019-03-02T09:55:42.377Z,97886.42
2019-03-02T09:56:46.123Z,97886.27
2019-03-02T09:57:48.951Z,97886.66
2019-03-02T09:58:53.082Z,97893.36
2019-03-02T09:59:56.304Z,97893.36
2019-03-02T10:01:01.130Z,97892.78
2019-03-02T10:02:06.286Z,97891.48
2019-03-02T10:03:09.155Z,97895.22
2019-03-02T10:04:11.948Z,97895.22
2019-03-02T10:05:15.544Z,97897.04
2019-03-02T10:06:21.786Z,97897.04
2019-03-02T10:07:28.459Z,97897.52
2019-03-02T10:08:32.975Z,97891.13
2019-03-02T10:09:35.839Z,97894.66
2019-03-02T10:10:41.152Z,97895.17
2019-03-02T10:11:46.233Z,97886.08
2019-03-02T10:12:51.458Z,97893.27
2019-03-02T10:13:56.914Z,97893.27
2019-03-02T10:15:00.753Z,97893.25
2019-03-02T10:16:04.495Z,97895.33
2019-03-02T10:17:11.314Z,97892.02
2019-03-02T10:18:17.936Z,97879.77
2019-03-02T10:19:25.145Z,97878.89
2019-03-02T10:20:29.750Z,97872.19
2019-03-02T10:21:32.585Z,97872.19
2019-03-02T10:22:35.503Z,97862.38
2019-03-02T10:23:41.965Z,97860.39
2019-03-02T10:24:49.789Z,97867.11
2019-03-02T10:25:53.145Z,97860.33
2019-03-02T10:26:55.955Z,97860.78
2019-03-02T10:27:59.070Z,97860.78
2019-03-02T10:29:01.897Z,97858.69
2019-03-02T10:30:04.825Z,97858.47
2019-03-02T10:31:10.926Z,97859.72
2019-03-02T10:32:13.762Z,97859.72
2019-03-02T10:33:23.350Z,97853.83
2019-03-02T10:34:26.124Z,97858.56
2019-03-02T10:35:28.949Z,97860.22
2019-03-02T10:36:32.474Z,97860.22
2019-03-02T10:37:35.385Z,97861.14
2019-03-02T10:38:38.610Z,97866.49
2019-03-02T10:39:41.675Z,97866.91
2019-03-02T10:40:45.037Z,97866.91
2019-03-02T10:41:49.224Z,97872.82
2019-03-02T10:42:59.012Z,97866.33
2019-03-02T10:43:59.175Z,97867.20
2019-03-02T10:45:02.096Z,97873.70
2019-03-02T10:46:07.177Z,97869.36
2019-03-02T10:47:14.975Z,97867.86
2019-03-02T10:48:33.267Z,97873.41
2019-03-02T10:49:44.675Z,97868.88
2019-03-02T10:50:51.103Z,97868.88
2019-03-02T10:51:55.698Z,122438.84
2019-03-02T10:52:58.620Z,122438.84
2019-03-02T10:54:02.747Z,97856.32
2019-03-02T10:55:08.451Z,97880.23
2019-03-02T10:56:10.386Z,97869.16
2019-03-02T10:57:13.194Z,97871.67
2019-03-02T10:58:16.003Z,97871.67
2019-03-02T10:59:19.343Z,122438.84
2019-03-02T11:00:30.842Z,122438.84
2019-03-02T11:01:35.888Z,97875.70
2019-03-02T11:02:38.734Z,97875.70
2019-03-02T11:03:41.652Z,97864.66
2019-03-02T11:04:55.354Z,97875.57
2019-03-02T11:06:23.046Z,97874.28
2019-03-02T11:08:02.601Z,97875.48
2019-03-02T11:09:36.444Z,97874.27
2019-03-02T11:11:05.583Z,97867.70
2019-03-02T11:12:25.545Z,97867.70
2019-03-02T11:13:35.066Z,97871.09
2019-03-02T11:14:50.194Z,97867.87
2019-03-02T11:16:20.556Z,97863.74
2019-03-02T11:17:44.961Z,97863.74
2019-03-02T11:19:21.502Z,97861.95
2019-03-02T11:20:45.805Z,97857.47
2019-03-02T11:22:10.970Z,97860.88
2019-03-02T11:23:34.147Z,97860.88
2019-03-02T11:25:01.632Z,97853.13
2019-03-02T11:26:25.808Z,97853.13
2019-03-02T11:27:51.071Z,97852.75
2019-03-02T11:29:11.333Z,97855.73
2019-03-02T11:43:20.758Z,97836.73
2019-03-02T11:44:42.618Z,97835.25
2019-03-02T11:45:51.734Z,97832.88
2019-03-02T11:47:13.507Z,97837.06
2019-03-02T11:48:36.441Z,97837.06
2019-03-02T11:49:58.172Z,97833.07
2019-03-02T11:51:13.056Z,97827.34
2019-03-02T11:52:38.435Z,97831.66
2019-03-02T11:53:59.455Z,97831.66
2019-03-02T11:55:23.848Z,97824.14
2019-03-02T11:56:46.448Z,97828.70
2019-03-02T11:58:02.419Z,97823.66
2019-03-02T11:59:27.255Z,97823.66
2019-03-02T12:00:57.892Z,97827.59
2019-03-02T12:02:19.921Z,97827.41
2019-03-02T12:03:39.852Z,97826.37
2019-03-02T12:05:05.299Z,97826.37
2019-03-02T12:06:27.828Z,97813.94
2019-03-02T12:07:49.281Z,97808.91
2019-03-02T12:09:13.957Z,97808.91
2019-03-02T12:10:21.457Z,97808.83
2019-03-02T12:11:49.307Z,97811.88
2019-03-02T12:13:07.255Z,97811.88
2019-03-02T12:14:26.911Z,97804.78
2019-03-02T12:15:45.953Z,97815.30
2019-03-02T12:17:15.385Z,97806.52
2019-03-02T12:18:35.626Z,97810.01
2019-03-02T12:19:47.839Z,97818.19
2019-03-02T12:21:12.458Z,97818.19
2019-03-02T12:22:45.966Z,97813.81
2019-03-02T12:24:19.215Z,97805.38
2019-03-02T12:25:39.928Z,97805.38
2019-03-02T12:26:59.695Z,97795.79
2019-03-02T12:28:40.144Z,97794.75
2019-03-02T12:30:08.181Z,97795.06
2019-03-02T12:31:32.943Z,97792.05
2019-03-02T12:33:00.488Z,97786.38
2019-03-02T12:34:22.448Z,97782.45
2019-03-02T12:35:41.967Z,97779.61
2019-03-02T12:37:01.074Z,97779.61
2019-03-02T12:38:31.800Z,97774.83
2019-03-02T12:39:46.312Z,97768.25
2019-03-02T12:41:15.675Z,97770.44
2019-03-02T12:42:30.447Z,97770.39
2019-03-02T12:43:59.445Z,97770.39
2019-03-02T12:45:36.274Z,97773.20
2019-03-02T12:47:06.543Z,97769.21
2019-03-02T12:48:43.409Z,97769.86
2019-03-02T12:50:01.967Z,97762.80
2019-03-02T12:51:26.429Z,97765.01
2019-03-02T12:52:51.310Z,97761.16
2019-03-02T12:54:04.836Z,97761.16
2019-03-02T12:55:35.191Z,97758.88
2019-03-02T12:56:56.772Z,97763.31
2019-03-02T12:58:27.590Z,97756.89
2019-03-02T13:00:10.267Z,97760.80
2019-03-02T13:01:38.740Z,97760.80
2019-03-02T13:03:04.316Z,97761.14
2019-03-02T13:04:37.558Z,97755.67
2019-03-02T13:05:58.858Z,97757.27
2019-03-02T13:07:17.161Z,97749.92
2019-03-02T13:08:48.517Z,97740.55
2019-03-02T13:10:16.085Z,97747.55
2019-03-02T13:11:36.595Z,97747.55
2019-03-02T13:12:51.621Z,97737.04
2019-03-02T13:14:11.646Z,97745.27
2019-03-02T13:15:42.217Z,97741.24
2019-03-02T13:17:08.451Z,97746.00
2019-03-02T13:18:28.630Z,97744.80
2019-03-02T13:19:42.512Z,97744.80
2019-03-02T13:20:54.640Z,97730.45
2019-03-02T13:22:19.111Z,97725.13
2019-03-02T13:23:34.586Z,97740.64
2019-03-02T13:25:03.919Z,97738.63
2019-03-02T13:26:34.721Z,97738.63